Time;durP1;ratioP1;P1;durP2;ratioP2;P2;SDS_P1;SDS_P2;PMS_P1;PMS_P2;Temp;Humidity;BMP_temperature;BMP_pressure;BME280_temperature;BME280_humidity;BME280_pressure;Samples;Min_cycle;Max_cycle;Signal;HPM_P1;HPM_P2
2022/05/25 00:00:27;;;;;;;5.18;3.47;;;;;;;18.59;72.02;99320.78;4187310;34;34433;-78
2022/05/25 00:03:14;;;;;;;5.35;3.62;;;;;;;18.39;72.56;99323.63;4194405;34;35433;-78
2022/05/25 00:06:01;;;;;;;5.53;3.70;;;;;;;18.30;73.09;99336.94;4195217;34;34999;-78
2022/05/25 00:08:50;;;;;;;6.70;4.40;;;;;;;18.43;72.76;99340.31;4184928;34;35766;-79
2022/05/25 00:11:37;;;;;;;6.30;4.22;;;;;;;17.60;78.64;99349.06;4194891;34;34409;-78
2022/05/25 00:14:23;;;;;;;8.73;4.43;;;;;;;18.14;76.44;99333.50;4194263;34;34200;-78
2022/05/25 00:17:09;;;;;;;7.68;4.60;;;;;;;18.09;73.60;99326.28;4195206;34;34954;-78
2022/05/25 00:19:59;;;;;;;7.22;4.22;;;;;;;17.93;75.28;99314.47;4186340;34;34465;-78
2022/05/25 00:22:54;;;;;;;6.80;4.22;;;;;;;17.92;75.19;99308.16;4193690;34;33833;-78
2022/05/25 00:25:40;;;;;;;6.43;4.10;;;;;;;18.11;73.65;99310.06;4185139;34;34462;-78
2022/05/25 00:28:26;;;;;;;6.78;4.43;;;;;;;17.96;74.48;99306.25;4186633;34;35056;-78
2022/05/25 00:31:12;;;;;;;7.12;4.05;;;;;;;18.11;74.55;99318.41;4186522;34;34554;-78
2022/05/25 00:33:59;;;;;;;5.85;4.28;;;;;;;18.12;75.01;99319.97;4186015;34;34390;-78
2022/05/25 00:36:46;;;;;;;7.68;4.32;;;;;;;18.17;74.61;99318.88;4186947;34;35654;-79
2022/05/25 00:39:32;;;;;;;6.50;4.00;;;;;;;18.28;73.57;99317.09;4194961;34;34489;-79
2022/05/25 00:42:19;;;;;;;7.68;4.37;;;;;;;18.30;73.70;99328.63;4186371;34;33962;-79
2022/05/25 00:45:07;;;;;;;7.18;4.97;;;;;;;18.45;72.37;99326.88;4193895;34;34431;-79
2022/05/25 00:47:53;;;;;;;6.57;4.03;;;;;;;18.45;72.06;99328.88;4194864;34;34240;-78
2022/05/25 00:53:53;;;;;;;6.95;3.80;;;;;;;18.48;71.97;99322.56;4186551;34;34935;-79
2022/05/25 00:56:42;;;;;;;5.15;3.85;;;;;;;18.56;71.42;99318.75;4193251;34;35197;-79
2022/05/25 00:59:32;;;;;;;7.10;4.32;;;;;;;18.27;72.63;99325.78;4186239;34;34649;-78
2022/05/25 01:02:18;;;;;;;7.78;3.87;;;;;;;18.22;74.35;99323.34;4184133;34;34475;-78
2022/05/25 01:05:06;;;;;;;5.60;3.58;;;;;;;18.51;72.42;99330.16;4184779;34;34471;-79
2022/05/25 01:08:15;;;;;;;4.93;3.75;;;;;;;18.65;72.04;99336.72;4193134;34;34417;-79
2022/05/25 01:11:28;;;;;;;6.43;3.92;;;;;;;18.85;70.43;99334.69;4184880;34;34219;-79
2022/05/25 01:14:42;;;;;;;7.53;4.35;;;;;;;18.31;72.72;99343.28;4184847;34;35340;-79
2022/05/25 01:17:39;;;;;;;6.97;3.50;;;;;;;18.55;71.17;99342.09;4193449;34;33825;-78
2022/05/25 01:20:35;;;;;;;6.43;4.00;;;;;;;18.52;70.76;99331.75;4185912;34;35358;-78
2022/05/25 01:23:46;;;;;;;5.37;3.75;;;;;;;18.53;70.10;99334.16;4184569;34;35317;-79
2022/05/25 01:27:09;;;;;;;8.27;4.00;;;;;;;18.57;70.74;99342.53;4185937;34;36309;-78
2022/05/25 01:30:03;;;;;;;5.87;4.00;;;;;;;18.64;70.25;99340.69;4196009;34;36001;-78
2022/05/25 01:33:10;;;;;;;7.28;3.95;;;;;;;18.59;70.41;99348.53;4195654;34;34311;-78
2022/05/25 01:36:23;;;;;;;5.72;3.92;;;;;;;18.53;70.47;99338.91;4195041;34;34383;-78
2022/05/25 01:39:13;;;;;;;4.82;3.50;;;;;;;18.22;71.41;99337.19;4176855;34;34928;-78
2022/05/25 01:42:17;;;;;;;6.97;3.75;;;;;;;18.27;70.96;99337.69;4186391;34;35253;-79
2022/05/25 01:45:08;;;;;;;6.40;3.87;;;;;;;18.04;73.04;99347.94;4186279;34;35323;-78
2022/05/25 01:47:55;;;;;;;5.63;3.70;;;;;;;18.27;70.94;99337.69;4194723;34;35509;-78
2022/05/25 01:51:02;;;;;;;4.55;3.40;;;;;;;18.35;69.77;99344.94;4185675;34;35603;-77
2022/05/25 01:53:51;;;;;;;5.40;3.62;;;;;;;18.06;70.78;99337.31;4186531;34;34384;-78
2022/05/25 01:56:40;;;;;;;7.37;3.90;;;;;;;17.82;71.26;99322.63;4195067;34;34292;-78
2022/05/25 01:59:26;;;;;;;5.37;3.40;;;;;;;17.92;70.62;99316.47;4187283;34;34631;-78
2022/05/25 02:05:20;;;;;;;4.70;3.05;;;;;;;17.87;69.93;99332.59;4194054;34;34590;-78
2022/05/25 02:08:22;;;;;;;5.47;3.15;;;;;;;17.81;69.42;99337.63;4195492;34;34301;-78
2022/05/25 02:11:24;;;;;;;4.47;3.10;;;;;;;17.24;73.89;99342.00;4186916;34;34654;-78
2022/05/25 02:14:23;;;;;;;4.37;2.85;;;;;;;17.76;69.88;99340.69;4188055;34;35969;-78
2022/05/25 02:17:46;;;;;;;8.10;3.12;;;;;;;17.96;69.56;99339.53;4195399;34;35859;-77
2022/05/25 02:20:44;;;;;;;4.75;2.95;;;;;;;18.01;69.42;99338.41;4194180;34;34160;-78
2022/05/25 02:23:53;;;;;;;5.25;3.15;;;;;;;17.73;69.52;99335.84;4194918;34;34284;-78
2022/05/25 02:26:49;;;;;;;4.80;2.92;;;;;;;18.04;67.86;99323.00;4195730;34;34925;-77
2022/05/25 02:29:42;;;;;;;5.35;3.10;;;;;;;17.94;68.21;99328.00;4195366;34;34943;-79
2022/05/25 02:32:44;;;;;;;5.55;3.50;;;;;;;17.48;71.84;99329.84;4176260;34;34305;-78
2022/05/25 02:35:33;;;;;;;5.10;3.00;;;;;;;17.48;70.88;99319.56;4185576;34;34676;-77
2022/05/25 02:38:19;;;;;;;4.72;2.90;;;;;;;17.72;69.51;99326.75;4194953;34;35935;-77
2022/05/25 02:41:13;;;;;;;5.15;2.80;;;;;;;17.58;70.06;99320.13;4195015;34;35399;-78
2022/05/25 02:44:01;;;;;;;4.65;3.20;;;;;;;17.77;69.54;99311.81;4186536;34;34407;-78
2022/05/25 02:46:48;;;;;;;5.35;2.95;;;;;;;17.51;70.39;99323.56;4186679;34;34670;-78
2022/05/25 02:49:35;;;;;;;4.28;3.00;;;;;;;17.76;69.98;99326.84;4186465;34;34508;-78
2022/05/25 02:52:21;;;;;;;5.57;3.40;;;;;;;17.39;70.64;99320.94;4195360;34;34583;-76
2022/05/25 02:55:08;;;;;;;4.37;3.08;;;;;;;17.04;71.84;99313.47;4176558;34;34434;-77
2022/05/25 02:57:58;;;;;;;6.45;3.17;;;;;;;17.22;71.03;99317.44;4177408;34;34125;-78
2022/05/25 03:00:45;;;;;;;7.20;3.35;;;;;;;17.07;72.55;99316.31;4187304;34;35681;-78
2022/05/25 03:03:36;;;;;;;7.50;3.65;;;;;;;17.39;71.53;99334.78;4185900;34;35403;-78
2022/05/25 03:06:21;;;;;;;5.00;3.35;;;;;;;17.49;70.56;99323.91;4185499;34;34198;-78
2022/05/25 03:09:08;;;;;;;6.72;3.70;;;;;;;17.58;70.60;99329.25;4187005;34;34185;-78
2022/05/25 03:11:55;;;;;;;6.03;3.20;;;;;;;17.29;71.13;99322.31;4186958;34;36003;-77
2022/05/25 03:14:42;;;;;;;6.87;3.53;;;;;;;17.41;70.47;99327.72;4186458;34;34876;-78
2022/05/25 03:17:28;;;;;;;5.35;3.37;;;;;;;17.37;71.27;99324.06;4185599;34;34899;-78
2022/05/25 03:20:15;;;;;;;5.68;3.53;;;;;;;17.29;71.60;99325.09;4187469;34;34737;-77
2022/05/25 03:23:06;;;;;;;6.18;3.40;;;;;;;17.33;71.17;99322.37;4195272;34;35877;-77
2022/05/25 03:25:52;;;;;;;5.50;3.25;;;;;;;17.48;70.70;99332.63;4194690;34;34959;-78
2022/05/25 03:28:39;;;;;;;7.20;3.85;;;;;;;17.59;70.33;99325.31;4185843;34;34921;-78
2022/05/25 03:31:25;;;;;;;4.22;3.20;;;;;;;17.46;70.42;99326.62;4186471;34;34279;-78
2022/05/25 03:34:11;;;;;;;6.57;3.42;;;;;;;17.69;69.21;99335.78;4194989;34;36267;-78
2022/05/25 03:36:58;;;;;;;6.53;3.47;;;;;;;17.86;68.82;99326.25;4175496;34;34960;-78
2022/05/25 03:39:44;;;;;;;6.15;3.67;;;;;;;17.66;68.86;99333.75;4193854;34;34931;-78
2022/05/25 03:42:31;;;;;;;6.05;3.37;;;;;;;17.77;68.99;99337.53;4186092;34;34637;-78
2022/05/25 03:45:17;;;;;;;6.85;4.05;;;;;;;17.54;69.45;99343.03;4194320;34;35000;-79
2022/05/25 03:48:07;;;;;;;8.68;3.35;;;;;;;17.44;70.66;99346.37;4195283;34;34452;-78
2022/05/25 03:50:53;;;;;;;5.50;3.17;;;;;;;17.56;69.87;99358.47;4185917;34;35400;-76
2022/05/25 03:53:40;;;;;;;6.93;3.60;;;;;;;17.53;70.41;99351.69;4195467;34;34781;-76
2022/05/25 03:56:27;;;;;;;5.25;3.10;;;;;;;17.64;70.03;99351.91;4197161;34;34006;-76
2022/05/25 03:59:13;;;;;;;5.53;3.90;;;;;;;17.44;70.46;99354.69;4180822;34;34621;-75
2022/05/25 04:01:59;;;;;;;7.45;3.25;;;;;;;17.11;71.69;99359.91;4195470;34;34359;-76
2022/05/25 04:04:46;;;;;;;4.95;3.15;;;;;;;17.48;69.99;99361.09;4186773;34;34707;-75
2022/05/25 04:07:43;;;;;;;7.20;3.58;;;;;;;17.44;70.47;99367.72;4187219;34;34462;-76
2022/05/25 04:10:30;;;;;;;4.55;2.87;;;;;;;17.64;70.15;99365.75;4186551;34;34980;-75
2022/05/25 04:13:16;;;;;;;5.05;2.97;;;;;;;17.42;69.39;99361.78;4187756;34;34326;-75
2022/05/25 04:16:03;;;;;;;6.28;3.10;;;;;;;17.64;69.30;99371.31;4197117;34;34667;-76
2022/05/25 04:18:49;;;;;;;4.03;2.75;;;;;;;17.86;68.51;99369.78;4180731;34;36038;-76
2022/05/25 04:21:36;;;;;;;6.90;3.05;;;;;;;17.76;68.36;99376.72;4187170;34;35296;-76
2022/05/25 04:24:23;;;;;;;3.78;2.62;;;;;;;17.94;68.04;99379.84;4177998;34;35259;-75
2022/05/25 04:27:09;;;;;;;4.35;2.90;;;;;;;17.94;67.25;99386.19;4196146;34;34684;-75
2022/05/25 04:29:56;;;;;;;4.25;2.87;;;;;;;17.82;68.73;99405.75;4186298;34;33698;-76
2022/05/25 04:32:42;;;;;;;6.53;2.62;;;;;;;17.90;66.92;99390.87;4195081;34;33886;-75
2022/05/25 04:35:29;;;;;;;4.85;2.60;;;;;;;18.05;66.79;99386.41;4187213;34;35023;-75
2022/05/25 04:38:16;;;;;;;6.10;2.67;;;;;;;17.96;66.42;99377.53;4185042;34;34291;-75
2022/05/25 04:41:02;;;;;;;4.28;2.60;;;;;;;18.08;65.53;99373.78;4185636;34;35013;-75
2022/05/25 04:43:48;;;;;;;5.45;2.75;;;;;;;18.16;65.86;99381.88;4186152;34;33908;-74
2022/05/25 04:46:35;;;;;;;3.75;2.80;;;;;;;17.70;66.66;99375.37;4186868;34;34431;-75
2022/05/25 04:49:21;;;;;;;8.93;2.70;;;;;;;17.81;66.36;99375.63;4186677;34;34615;-74
2022/05/25 04:52:07;;;;;;;5.68;2.92;;;;;;;17.70;66.95;99380.91;4192829;34;34974;-75
2022/05/25 04:54:54;;;;;;;4.28;2.53;;;;;;;17.80;67.18;99391.47;4185306;34;34636;-75
2022/05/25 04:57:40;;;;;;;4.95;2.87;;;;;;;18.07;66.37;99388.78;4185168;34;34355;-75
2022/05/25 05:00:27;;;;;;;4.32;2.50;;;;;;;18.10;66.84;99382.50;4187726;34;35638;-75
2022/05/25 05:03:14;;;;;;;4.95;3.25;;;;;;;18.06;66.98;99393.53;4196611;34;35028;-75
2022/05/25 05:06:01;;;;;;;7.10;2.85;;;;;;;18.38;66.08;99396.91;4187201;34;34948;-76
2022/05/25 05:08:47;;;;;;;7.72;3.00;;;;;;;18.34;66.98;99398.03;4181311;34;33856;-75
2022/05/25 05:11:36;;;;;;;4.85;3.08;;;;;;;18.42;66.43;99403.31;4189688;34;34781;-75
2022/05/25 05:14:22;;;;;;;7.47;3.08;;;;;;;18.10;68.50;99399.97;4197560;34;35553;-75
2022/05/25 05:17:08;;;;;;;4.80;2.90;;;;;;;18.31;67.72;99407.88;4188084;34;35195;-76
2022/05/25 05:19:56;;;;;;;6.82;3.12;;;;;;;18.31;67.31;99407.88;4188062;34;34925;-75
2022/05/25 05:22:42;;;;;;;4.75;3.20;;;;;;;18.38;66.75;99410.75;4187022;34;34667;-74
2022/05/25 05:25:29;;;;;;;5.12;3.47;;;;;;;18.26;68.00;99413.72;4187695;34;35736;-75
2022/05/25 05:28:19;;;;;;;7.47;3.22;;;;;;;18.59;66.86;99409.56;4185428;34;35412;-74
2022/05/25 05:31:06;;;;;;;6.97;3.05;;;;;;;18.51;67.32;99414.19;4188844;34;35354;-75
2022/05/25 05:33:52;;;;;;;5.60;3.10;;;;;;;18.96;65.92;99420.09;4196889;34;34155;-75
2022/05/25 05:37:09;;;;;;;5.07;3.35;;;;;;;18.51;68.72;99430.81;4185973;34;36037;-74
2022/05/25 05:40:02;;;;;;;6.35;3.42;;;;;;;18.53;67.33;99427.69;4178210;34;35716;-74
2022/05/25 05:42:50;;;;;;;5.65;3.67;;;;;;;18.49;67.18;99437.91;4195161;34;34554;-74
2022/05/25 05:45:39;;;;;;;5.40;3.12;;;;;;;18.71;66.19;99431.56;4195743;34;36276;-74
2022/05/25 05:48:28;;;;;;;5.35;3.53;;;;;;;19.03;65.59;99439.63;4187400;34;35425;-74
2022/05/25 05:51:15;;;;;;;7.07;3.40;;;;;;;18.86;66.12;99436.19;4186773;34;35754;-74
2022/05/25 05:54:04;;;;;;;5.50;3.65;;;;;;;18.90;65.59;99446.56;4195876;34;35265;-74
2022/05/25 05:56:50;;;;;;;6.95;3.42;;;;;;;19.04;65.38;99452.34;4187042;34;34713;-74
2022/05/25 05:59:38;;;;;;;7.50;3.72;;;;;;;19.03;65.08;99453.53;4187999;34;35064;-74
2022/05/25 06:02:24;;;;;;;7.47;3.40;;;;;;;18.85;66.96;99456.81;4186689;34;34614;-74
2022/05/25 06:05:11;;;;;;;6.07;3.25;;;;;;;19.17;67.04;99459.28;4187099;34;34369;-74
2022/05/25 06:08:07;;;;;;;6.30;3.58;;;;;;;19.26;65.89;99454.28;4186880;34;34562;-74
2022/05/25 06:10:55;;;;;;;6.75;3.70;;;;;;;19.33;65.23;99454.41;4187554;34;34958;-75
2022/05/25 06:13:41;;;;;;;8.25;3.40;;;;;;;19.54;64.97;99444.75;4187559;34;34915;-74
2022/05/25 06:19:37;;;;;;;7.22;3.87;;;;;;;19.19;65.07;99456.16;4179574;34;35461;-73
2022/05/25 06:22:23;;;;;;;5.45;3.12;;;;;;;19.36;65.32;99449.28;4187588;34;34891;-74
2022/05/25 06:25:10;;;;;;;5.28;3.08;;;;;;;18.87;67.85;99454.47;4186932;34;34938;-74
2022/05/25 06:27:56;;;;;;;6.25;3.28;;;;;;;19.28;67.07;99448.34;4187693;34;34348;-74
2022/05/25 06:30:42;;;;;;;8.43;3.60;;;;;;;19.94;64.25;99460.00;4186464;34;34667;-74
2022/05/25 06:33:29;;;;;;;7.97;3.42;;;;;;;19.75;64.02;99458.97;4177019;34;35042;-74
2022/05/25 06:36:25;;;;;;;8.63;4.10;;;;;;;19.58;63.96;99464.25;4187484;34;33789;-73
2022/05/25 06:39:11;;;;;;;5.37;3.28;;;;;;;19.74;63.95;99460.13;4186424;34;34561;-74
2022/05/25 06:41:57;;;;;;;6.12;3.50;;;;;;;19.85;64.49;99440.03;4187288;34;34141;-75
2022/05/25 06:44:44;;;;;;;6.90;3.70;;;;;;;20.29;63.36;99444.91;4187772;34;36100;-74
2022/05/25 06:47:32;;;;;;;5.25;3.25;;;;;;;20.18;60.89;99445.59;4176823;34;35661;-74
2022/05/25 06:50:18;;;;;;;6.15;3.15;;;;;;;20.34;61.40;99445.34;4176527;34;34379;-75
2022/05/25 06:53:04;;;;;;;8.68;3.62;;;;;;;20.66;61.90;99448.50;4187356;34;35270;-74
2022/05/25 06:55:50;;;;;;;5.55;3.00;;;;;;;20.58;60.78;99452.41;4195938;34;34946;-74
2022/05/25 06:58:37;;;;;;;9.43;3.45;;;;;;;20.39;63.13;99447.00;4187231;34;34531;-74
2022/05/25 07:01:24;;;;;;;5.18;2.95;;;;;;;20.57;61.90;99459.13;4187377;34;34888;-74
2022/05/25 07:04:11;;;;;;;7.78;2.92;;;;;;;20.91;60.92;99461.03;4185366;34;35682;-74
2022/05/25 07:07:01;;;;;;;6.55;3.00;;;;;;;21.22;60.29;99459.69;4186900;34;36057;-74
2022/05/25 07:09:48;;;;;;;5.45;3.00;;;;;;;21.17;59.84;99460.03;4186115;34;35327;-75
2022/05/25 07:12:35;;;;;;;5.72;3.30;;;;;;;21.19;60.25;99460.47;4187299;34;34487;-74
2022/05/25 07:15:21;;;;;;;6.53;2.83;;;;;;;21.50;59.55;99453.53;4187230;34;35514;-74
2022/05/25 07:18:08;;;;;;;7.70;3.53;;;;;;;21.42;61.08;99451.87;4187123;34;35055;-75
2022/05/25 07:20:59;;;;;;;5.93;4.10;;;;;;;21.78;59.44;99450.09;4195210;34;35029;-74
2022/05/25 07:23:48;;;;;;;5.60;3.67;;;;;;;21.63;59.50;99445.63;4186547;34;34460;-74
2022/05/25 07:26:35;;;;;;;5.18;3.10;;;;;;;21.64;60.03;99458.41;4186602;34;34691;-73
2022/05/25 07:29:21;;;;;;;5.45;3.65;;;;;;;21.45;61.09;99468.63;4180077;34;34955;-74
2022/05/25 07:32:11;;;;;;;5.45;3.60;;;;;;;21.63;60.09;99465.13;4187268;34;35779;-74
2022/05/25 07:35:02;;;;;;;6.20;3.40;;;;;;;21.79;59.36;99457.25;4186104;34;35397;-74
2022/05/25 07:37:51;;;;;;;7.62;3.90;;;;;;;21.95;59.50;99459.75;4176486;34;35642;-74
2022/05/25 07:40:40;;;;;;;7.18;3.90;;;;;;;22.08;61.08;99465.75;4186134;34;35533;-74
2022/05/25 07:43:30;;;;;;;7.45;3.90;;;;;;;22.26;59.00;99461.06;4187081;34;35778;-74
2022/05/25 07:46:17;;;;;;;6.90;4.22;;;;;;;22.52;57.94;99456.34;4186101;34;34150;-74
2022/05/25 07:49:03;;;;;;;8.82;4.35;;;;;;;22.15;59.99;99461.00;4186669;34;34235;-74
2022/05/25 07:51:53;;;;;;;8.40;4.15;;;;;;;22.35;58.59;99458.69;4187021;34;35070;-74
2022/05/25 07:54:40;;;;;;;6.95;4.35;;;;;;;22.60;59.30;99469.94;4185958;34;34475;-74
2022/05/25 07:57:27;;;;;;;9.15;4.85;;;;;;;22.97;57.60;99471.59;4185561;34;33931;-75
2022/05/25 08:00:15;;;;;;;5.75;4.07;;;;;;;22.14;58.77;99464.19;4186891;34;35678;-74
2022/05/25 08:06:06;;;;;;;8.55;4.50;;;;;;;23.24;56.95;99479.56;4187010;34;35748;-74
2022/05/25 08:08:53;;;;;;;10.00;4.43;;;;;;;23.10;56.67;99480.34;4195373;34;35702;-75
2022/05/25 08:11:40;;;;;;;10.60;4.40;;;;;;;23.00;58.80;99476.38;4189899;34;35668;-74
2022/05/25 08:14:28;;;;;;;9.00;4.62;;;;;;;23.40;57.23;99481.94;4186876;34;35039;-74
2022/05/25 08:17:14;;;;;;;7.60;4.53;;;;;;;22.80;59.65;99473.16;4185684;34;34955;-74
2022/05/25 08:20:01;;;;;;;7.03;4.40;;;;;;;23.13;59.38;99473.97;4186907;34;34498;-74
2022/05/25 08:22:48;;;;;;;7.12;4.82;;;;;;;22.11;60.05;99459.37;4195393;34;34165;-75
2022/05/25 08:25:36;;;;;;;8.55;5.03;;;;;;;23.02;60.00;99473.16;4185372;34;35960;-74
2022/05/25 08:28:22;;;;;;;7.60;5.57;;;;;;;23.67;56.88;99457.91;4184612;34;35608;-75
2022/05/25 08:31:09;;;;;;;9.82;5.40;;;;;;;23.67;56.11;99463.50;4194641;34;33977;-74
2022/05/25 08:33:55;;;;;;;7.22;5.40;;;;;;;24.17;55.15;99460.53;4186826;34;34259;-75
2022/05/25 08:36:42;;;;;;;7.47;5.10;;;;;;;24.30;54.47;99454.47;4184596;34;35475;-75
2022/05/25 08:39:28;;;;;;;7.68;5.43;;;;;;;24.03;54.29;99463.41;4186693;34;34452;-75
2022/05/25 08:42:21;;;;;;;7.90;5.45;;;;;;;24.30;54.03;99460.84;4195031;34;34405;-74
2022/05/25 08:45:08;;;;;;;9.07;5.60;;;;;;;24.57;53.15;99458.34;4194915;34;34636;-74
2022/05/25 08:47:57;;;;;;;9.85;6.05;;;;;;;24.10;54.61;99468.16;4194980;34;35830;-74
2022/05/25 08:50:50;;;;;;;10.23;5.18;;;;;;;24.33;54.32;99473.25;4194851;34;35845;-74
2022/05/25 08:53:37;;;;;;;8.55;6.00;;;;;;;24.42;54.41;99468.81;4194599;34;35318;-75
2022/05/25 08:57:03;;;;;;;8.48;6.03;;;;;;;25.06;52.39;99461.97;4186193;34;34503;-75
2022/05/25 08:59:51;;;;;;;9.07;6.78;;;;;;;25.19;52.43;99458.66;4185256;34;34621;-74
2022/05/25 09:02:57;;;;;;;7.95;5.60;;;;;;;22.85;57.02;99467.16;4194717;34;34429;-75
2022/05/25 09:05:55;;;;;;;12.15;6.43;;;;;;;24.17;54.61;99457.75;4185141;34;36535;-75
2022/05/25 09:08:50;;;;;;;11.18;6.55;;;;;;;24.96;53.34;99448.84;4185216;34;33975;-75
2022/05/25 09:11:47;;;;;;;11.00;6.68;;;;;;;25.50;50.86;99454.78;4186276;34;35569;-74
2022/05/25 09:14:42;;;;;;;9.50;6.37;;;;;;;24.57;54.00;99455.53;4186185;34;35392;-74
2022/05/25 09:17:43;;;;;;;9.68;6.47;;;;;;;25.44;51.92;99462.03;4186191;34;35335;-74
2022/05/25 09:20:39;;;;;;;7.97;6.10;;;;;;;25.65;52.36;99465.84;4186083;34;34647;-75
2022/05/25 09:23:26;;;;;;;9.85;6.47;;;;;;;25.80;51.21;99464.47;4184968;34;34611;-74
2022/05/25 09:26:13;;;;;;;8.98;6.60;;;;;;;25.28;51.79;99461.81;4185919;34;34488;-74
2022/05/25 09:29:02;;;;;;;10.18;6.70;;;;;;;25.22;51.21;99464.28;4185897;34;35381;-75
2022/05/25 09:32:02;;;;;;;9.65;6.47;;;;;;;24.53;55.22;99460.34;4194483;34;35016;-74
2022/05/25 09:34:59;;;;;;;12.05;6.75;;;;;;;23.93;55.33;99459.44;4184729;34;35934;-77
2022/05/25 09:37:54;;;;;;;9.75;6.55;;;;;;;24.68;54.07;99453.47;4184783;34;35489;-74
2022/05/25 09:40:45;;;;;;;8.65;6.72;;;;;;;25.32;52.43;99456.97;4185896;34;34441;-74
2022/05/25 09:43:32;;;;;;;11.15;7.50;;;;;;;24.30;54.06;99462.88;4183998;34;34766;-74
2022/05/25 09:46:34;;;;;;;10.88;7.35;;;;;;;23.89;55.70;99463.47;4184001;34;35040;-74
2022/05/25 09:49:44;;;;;;;10.68;7.80;;;;;;;24.58;53.05;99465.53;4195473;34;34952;-74
2022/05/25 09:52:46;;;;;;;9.20;7.03;;;;;;;25.35;51.43;99456.91;4196248;34;34369;-76
2022/05/25 09:55:44;;;;;;;12.77;8.90;;;;;;;25.67;55.29;99460.59;4195574;34;34285;-75
2022/05/25 09:58:37;;;;;;;8.50;6.43;;;;;;;25.89;52.56;99461.97;4180468;34;33934;-75
2022/05/25 10:01:44;;;;;;;9.30;7.07;;;;;;;25.01;54.83;99465.19;4186704;34;34440;-75
2022/05/25 10:04:51;;;;;;;10.63;6.87;;;;;;;25.14;54.60;99471.16;4187662;34;35242;-76
2022/05/25 10:07:42;;;;;;;10.65;7.87;;;;;;;25.66;53.98;99465.41;4196235;34;34023;-75
2022/05/25 10:10:44;;;;;;;10.32;6.55;;;;;;;25.13;53.01;99464.72;4186137;34;35007;-75
2022/05/25 10:13:30;;;;;;;;;;;;;;;25.78;52.79;99461.28;4196564;34;34943;-75
2022/05/25 10:16:21;;;;;;;10.75;8.68;;;;;;;26.94;51.08;99455.72;4195705;34;34235;-75
2022/05/25 10:19:12;;;;;;;8.55;7.45;;;;;;;26.51;50.16;99462.00;4187436;34;34569;-75
2022/05/25 10:22:03;;;;;;;11.85;8.15;;;;;;;26.91;51.06;99462.97;4187531;34;34798;-75
2022/05/25 10:24:58;;;;;;;9.25;8.18;;;;;;;26.84;48.76;99449.06;4177211;34;34930;-75
2022/05/25 10:27:45;;;;;;;10.35;8.02;;;;;;;26.16;50.20;99461.25;4186578;34;34026;-75
2022/05/25 10:37:02;;;;;;;12.30;8.52;;;;;;;24.54;55.08;99453.56;4194298;34;34920;-74
2022/05/25 10:39:54;;;;;;;10.43;7.68;;;;;;;25.04;54.96;99458.78;4187549;34;33524;-75
2022/05/25 10:42:46;;;;;;;11.12;8.10;;;;;;;26.13;51.66;99446.03;4187457;34;34743;-74
2022/05/25 10:45:39;;;;;;;12.13;8.13;;;;;;;25.32;52.16;99456.97;4186304;34;34512;-74
2022/05/25 10:48:48;;;;;;;10.60;8.25;;;;;;;25.56;51.56;99455.13;4186092;34;35456;-75
2022/05/25 10:51:42;;;;;;;13.65;8.43;;;;;;;26.35;52.16;99452.13;4187440;34;35326;-75
2022/05/25 10:58:08;;;;;;;13.27;7.55;;;;;;;26.07;50.08;99453.34;4187328;34;35529;-74
2022/05/25 11:01:05;;;;;;;10.80;7.60;;;;;;;25.22;52.56;99457.88;4186517;34;35876;-74
2022/05/25 11:04:24;;;;;;;8.23;7.25;;;;;;;24.73;55.29;99459.81;4186425;34;35391;-73
2022/05/25 11:07:21;;;;;;;8.40;7.05;;;;;;;24.86;54.02;99458.13;4195737;34;34592;-74
2022/05/25 11:10:37;;;;;;;8.95;7.62;;;;;;;24.25;55.97;99452.91;4195758;34;35251;-73
2022/05/25 11:13:48;;;;;;;8.90;7.30;;;;;;;24.98;54.42;99459.63;4195748;34;34905;-74
2022/05/25 11:16:40;;;;;;;10.98;7.10;;;;;;;24.72;55.06;99461.84;4187300;34;34553;-74
2022/05/25 11:19:39;;;;;;;10.18;7.10;;;;;;;25.12;53.67;99467.91;4187110;34;34021;-74
2022/05/25 11:22:28;;;;;;;7.65;6.32;;;;;;;26.11;50.43;99461.72;4187291;34;35641;-74
2022/05/25 11:25:28;;;;;;;21.37;8.00;;;;;;;26.85;49.75;99462.66;4187094;34;34904;-75
2022/05/25 11:28:32;;;;;;;12.03;6.70;;;;;;;25.95;49.16;99465.91;4195661;34;35337;-75
2022/05/25 11:31:46;;;;;;;9.50;6.70;;;;;;;26.82;48.82;99463.53;4187198;34;33941;-74
2022/05/25 11:34:36;;;;;;;9.40;7.12;;;;;;;26.79;49.31;99464.38;4186959;34;34620;-75
2022/05/25 11:37:29;;;;;;;9.65;6.32;;;;;;;26.32;51.48;99466.25;4187175;34;35746;-74
2022/05/25 11:40:46;;;;;;;8.27;6.37;;;;;;;26.45;48.53;99465.25;4195632;34;34385;-74
2022/05/25 11:43:43;;;;;;;10.18;6.55;;;;;;;25.51;49.06;99464.00;4195577;34;34782;-75
2022/05/25 11:46:50;;;;;;;10.93;6.80;;;;;;;26.51;47.81;99451.56;4186995;34;33854;-74
2022/05/25 11:49:51;;;;;;;8.38;6.97;;;;;;;26.33;49.12;99460.22;4186119;34;34888;-77
2022/05/25 11:53:01;;;;;;;12.10;7.22;;;;;;;25.26;51.41;99462.22;4187129;34;35250;-76
2022/05/25 11:56:09;;;;;;;8.57;6.70;;;;;;;25.75;50.15;99465.72;4195637;34;35601;-75
2022/05/25 11:59:01;;;;;;;10.07;7.03;;;;;;;26.13;50.27;99464.91;4187003;34;35060;-75
2022/05/25 12:02:27;;;;;;;8.77;6.47;;;;;;;25.33;52.92;99475.37;4195649;34;35839;-76
2022/05/25 12:05:29;;;;;;;8.75;7.22;;;;;;;25.68;52.53;99467.81;4185627;34;34371;-76
2022/05/25 12:08:43;;;;;;;9.57;6.55;;;;;;;25.30;53.19;99477.00;4186933;34;34730;-76
2022/05/25 12:11:48;;;;;;;8.95;6.57;;;;;;;26.90;49.69;99467.03;4185206;34;34857;-75
2022/05/25 12:15:17;;;;;;;8.43;7.12;;;;;;;27.11;48.36;99469.47;4183206;34;35438;-75
2022/05/25 12:18:25;;;;;;;10.70;7.07;;;;;;;26.87;50.00;99474.28;4186299;34;34002;-76
2022/05/25 12:21:20;;;;;;;9.48;6.80;;;;;;;25.62;52.96;99491.94;4185379;34;34165;-77
2022/05/25 12:24:10;;;;;;;9.38;7.70;;;;;;;26.38;51.21;99476.59;4186059;34;35962;-81
2022/05/25 12:26:57;;;;;;;9.60;7.37;;;;;;;24.93;54.71;99486.09;4176278;34;34923;-78
2022/05/25 12:29:50;;;;;;;9.63;6.85;;;;;;;24.76;54.98;99485.03;4185710;34;35261;-78
2022/05/25 12:32:41;;;;;;;10.10;6.37;;;;;;;25.00;54.14;99488.06;4175995;34;34631;-76
2022/05/25 12:35:30;;;;;;;9.93;7.37;;;;;;;25.34;54.17;99488.97;4195169;34;34565;-76
2022/05/25 12:38:19;;;;;;;11.25;7.03;;;;;;;25.18;53.75;99488.72;4186780;34;34684;-76
2022/05/25 12:41:25;;;;;;;9.25;7.43;;;;;;;25.87;52.35;99481.25;4186918;34;34371;-77
2022/05/25 12:51:31;;;;;;;11.40;8.57;;;;;;;24.94;53.46;99475.69;4185047;34;34404;-74
2022/05/25 12:54:23;;;;;;;9.68;8.40;;;;;;;25.00;54.34;99476.84;4180666;34;33910;-75
2022/05/25 12:57:22;;;;;;;10.63;7.45;;;;;;;25.05;53.77;99482.00;4194537;34;34355;-73
2022/05/25 13:00:31;;;;;;;10.68;7.68;;;;;;;25.76;52.88;99469.34;4185816;34;34507;-74
2022/05/25 13:03:40;;;;;;;9.60;8.30;;;;;;;26.29;52.21;99470.69;4197005;34;33488;-74
2022/05/25 13:06:29;;;;;;;15.13;8.95;;;;;;;25.54;52.14;99475.16;4187207;34;33896;-72
2022/05/25 13:09:24;;;;;;;9.30;8.27;;;;;;;25.29;52.73;99463.41;4175624;34;35231;-73
2022/05/25 13:12:39;;;;;;;10.57;8.13;;;;;;;25.30;52.79;99462.16;4185165;34;35000;-73
2022/05/25 13:15:27;;;;;;;12.02;8.70;;;;;;;26.54;49.13;99452.72;4185599;34;34596;-73
2022/05/25 13:18:54;;;;;;;10.05;8.18;;;;;;;26.44;50.00;99457.22;4186144;34;35374;-74
2022/05/25 13:22:11;;;;;;;10.75;8.50;;;;;;;26.99;48.16;99453.22;4193956;34;34665;-73
2022/05/25 13:25:26;;;;;;;8.88;7.75;;;;;;;25.74;50.93;99457.72;4184486;34;34487;-73
2022/05/25 13:28:34;;;;;;;9.68;7.37;;;;;;;26.08;50.20;99462.56;4187537;34;35259;-74
2022/05/25 13:31:23;;;;;;;9.35;8.43;;;;;;;26.71;47.93;99470.53;4187882;34;34349;-75
2022/05/25 13:34:12;;;;;;;11.18;8.63;;;;;;;25.39;50.51;99476.53;4196232;34;34688;-73
2022/05/25 13:37:04;;;;;;;12.35;8.98;;;;;;;25.05;51.49;99477.19;4187010;34;35657;-74
2022/05/25 13:39:50;;;;;;;10.18;9.00;;;;;;;24.53;52.97;99477.16;4188450;34;34826;-74
2022/05/25 13:42:44;;;;;;;12.15;8.30;;;;;;;24.18;54.39;99481.72;4196680;34;33909;-73
2022/05/25 13:45:31;;;;;;;11.15;8.93;;;;;;;24.53;54.59;99477.16;4197778;34;34664;-74
2022/05/25 13:48:18;;;;;;;10.13;8.60;;;;;;;24.87;53.44;99477.34;4198058;34;36638;-73
2022/05/25 13:51:04;;;;;;;8.63;7.65;;;;;;;25.14;52.13;99479.56;4188973;34;34752;-73
2022/05/25 13:53:51;;;;;;;10.32;8.30;;;;;;;24.89;52.37;99479.72;4188319;34;34229;-73
2022/05/25 13:56:37;;;;;;;12.77;7.75;;;;;;;24.95;52.44;99480.88;4198439;34;34703;-74
2022/05/25 13:59:42;;;;;;;10.52;7.95;;;;;;;25.19;52.29;99473.50;4182643;34;34978;-75